Minton, Canada
Current Conditions -  °F | °C
As of 6:55 AM on Friday 19 Dec 2014 (Local Time) from KD50 Reporting Station
Haze Haze  
Wind Chill: -5°   Ceiling: 100
Heat Index: -5°   Visibility: 1.5mi
Dew Point: -5°   Wind: 0mph
Humidity: 100%   Direction: NA
Pressure: 29.92"   Gusts: NA
Location:  49.17°N, 104.58°W
Report Text: KD50 191255Z AUTO 00000KT 1 1/2SM BR OVC001 M05/M05 A2992 RMK AO2
Loading
Personal Weather Stations






























Interactive Weather Map New forecast layout! Learn more

10-Day Weather Forecast

Advertisements
Track Severe Weather on mobile